sensor_id;sensor_type;location;lat;lon;timestamp;pressure;altitude;pressure_sealevel;temperature;humidity
84936;BME280;75210;52.210;20.902;2024-01-10T00:00:08;102174.81;;;-7.77;72.13
84936;BME280;75210;52.210;20.902;2024-01-10T00:01:09;102153.50;;;-7.93;72.37
84936;BME280;75210;52.210;20.902;2024-01-10T00:02:10;102177.38;;;-7.77;72.29
84936;BME280;75210;52.210;20.902;2024-01-10T00:03:11;102171.25;;;-7.80;72.09
84936;BME280;75210;52.210;20.902;2024-01-10T00:04:11;102160.44;;;-7.75;71.98
84936;BME280;75210;52.210;20.902;2024-01-10T00:05:12;102126.31;;;-7.91;71.36
84936;BME280;75210;52.210;20.902;2024-01-10T00:06:12;102161.56;;;-7.70;71.36
84936;BME280;75210;52.210;20.902;2024-01-10T00:07:13;102166.88;;;-7.65;71.44
84936;BME280;75210;52.210;20.902;2024-01-10T00:08:13;102167.13;;;-7.61;71.15
84936;BME280;75210;52.210;20.902;2024-01-10T00:09:13;102158.00;;;-7.55;71.54
84936;BME280;75210;52.210;20.902;2024-01-10T00:10:14;102159.03;;;-7.52;71.75
84936;BME280;75210;52.210;20.902;2024-01-10T00:11:14;102158.31;;;-7.49;70.41
84936;BME280;75210;52.210;20.902;2024-01-10T00:12:15;102129.34;;;-7.65;70.54
84936;BME280;75210;52.210;20.902;2024-01-10T00:13:15;102151.41;;;-7.50;70.70
84936;BME280;75210;52.210;20.902;2024-01-10T00:14:15;102146.47;;;-7.47;70.52
84936;BME280;75210;52.210;20.902;2024-01-10T00:15:16;102154.22;;;-7.46;70.29
84936;BME280;75210;52.210;20.902;2024-01-10T00:16:16;102130.56;;;-7.58;70.59
84936;BME280;75210;52.210;20.902;2024-01-10T00:17:18;102154.94;;;-7.48;70.45
84936;BME280;75210;52.210;20.902;2024-01-10T00:18:18;102129.88;;;-7.54;70.56
84936;BME280;75210;52.210;20.902;2024-01-10T00:19:19;102153.41;;;-7.45;70.88
84936;BME280;75210;52.210;20.902;2024-01-10T00:20:19;102143.66;;;-7.52;70.43
84936;BME280;75210;52.210;20.902;2024-01-10T00:21:20;102155.81;;;-7.48;70.73
84936;BME280;75210;52.210;20.902;2024-01-10T00:22:20;102154.31;;;-7.44;70.39
84936;BME280;75210;52.210;20.902;2024-01-10T00:23:20;102157.00;;;-7.41;69.98
84936;BME280;75210;52.210;20.902;2024-01-10T00:24:21;102144.25;;;-7.40;69.93
84936;BME280;75210;52.210;20.902;2024-01-10T00:25:21;102151.06;;;-7.40;70.42
84936;BME280;75210;52.210;20.902;2024-01-10T00:26:22;102152.91;;;-7.38;69.48
84936;BME280;75210;52.210;20.902;2024-01-10T00:27:22;102147.78;;;-7.38;69.79
84936;BME280;75210;52.210;20.902;2024-01-10T00:28:22;102153.94;;;-7.34;69.69
84936;BME280;75210;52.210;20.902;2024-01-10T00:29:23;102099.81;;;-7.58;69.86
84936;BME280;75210;52.210;20.902;2024-01-10T00:30:24;102150.50;;;-7.35;69.30
84936;BME280;75210;52.210;20.902;2024-01-10T00:31:24;102151.38;;;-7.34;70.46
84936;BME280;75210;52.210;20.902;2024-01-10T00:32:26;102146.19;;;-7.36;69.83
84936;BME280;75210;52.210;20.902;2024-01-10T00:33:27;102147.06;;;-7.35;69.58
84936;BME280;75210;52.210;20.902;2024-01-10T00:34:27;102121.56;;;-7.50;70.20
84936;BME280;75210;52.210;20.902;2024-01-10T00:35:27;102153.16;;;-7.33;69.48
84936;BME280;75210;52.210;20.902;2024-01-10T00:36:28;102102.16;;;-7.63;69.22
84936;BME280;75210;52.210;20.902;2024-01-10T00:37:28;102151.47;;;-7.33;69.86
84936;BME280;75210;52.210;20.902;2024-01-10T00:38:28;102151.47;;;-7.33;69.48
84936;BME280;75210;52.210;20.902;2024-01-10T00:39:29;102131.88;;;-7.48;70.25
84936;BME280;75210;52.210;20.902;2024-01-10T00:40:29;102151.31;;;-7.36;69.68
84936;BME280;75210;52.210;20.902;2024-01-10T00:41:30;102123.84;;;-7.56;69.25
84936;BME280;75210;52.210;20.902;2024-01-10T00:42:30;102150.25;;;-7.39;69.59
84936;BME280;75210;52.210;20.902;2024-01-10T00:43:30;102134.63;;;-7.62;69.62
84936;BME280;75210;52.210;20.902;2024-01-10T00:44:31;102135.75;;;-7.56;69.25
84936;BME280;75210;52.210;20.902;2024-01-10T00:45:31;102165.09;;;-7.50;70.28
84936;BME280;75210;52.210;20.902;2024-01-10T00:46:31;102156.38;;;-7.53;70.14
84936;BME280;75210;52.210;20.902;2024-01-10T00:47:34;102146.22;;;-7.52;70.75
84936;BME280;75210;52.210;20.902;2024-01-10T00:48:34;102151.22;;;-7.55;69.80
84936;BME280;75210;52.210;20.902;2024-01-10T00:49:34;102145.25;;;-7.54;70.13
84936;BME280;75210;52.210;20.902;2024-01-10T00:50:35;102157.41;;;-7.50;70.67
84936;BME280;75210;52.210;20.902;2024-01-10T00:51:35;102155.75;;;-7.49;70.08
84936;BME280;75210;52.210;20.902;2024-01-10T00:52:36;102044.75;;;-8.18;70.20
84936;BME280;75210;52.210;20.902;2024-01-10T00:53:36;102159.91;;;-7.51;69.97
84936;BME280;75210;52.210;20.902;2024-01-10T00:54:36;102156.81;;;-7.62;70.64
84936;BME280;75210;52.210;20.902;2024-01-10T00:55:37;102157.59;;;-7.63;70.69
84936;BME280;75210;52.210;20.902;2024-01-10T00:56:37;102162.81;;;-7.62;70.98
84936;BME280;75210;52.210;20.902;2024-01-10T00:57:38;102157.44;;;-7.66;70.39
84936;BME280;75210;52.210;20.902;2024-01-10T00:58:38;102168.72;;;-7.63;71.25
84936;BME280;75210;52.210;20.902;2024-01-10T00:59:39;102158.56;;;-7.61;71.02
84936;BME280;75210;52.210;20.902;2024-01-10T01:00:39;102096.94;;;-7.98;70.99
84936;BME280;75210;52.210;20.902;2024-01-10T01:01:39;102109.25;;;-7.91;71.31
84936;BME280;75210;52.210;20.902;2024-01-10T01:02:41;102160.84;;;-7.67;71.17
84936;BME280;75210;52.210;20.902;2024-01-10T01:03:41;102166.84;;;-7.67;70.60
84936;BME280;75210;52.210;20.902;2024-01-10T01:04:42;102157.41;;;-7.68;71.73
84936;BME280;75210;52.210;20.902;2024-01-10T01:05:42;102150.59;;;-7.67;70.87
84936;BME280;75210;52.210;20.902;2024-01-10T01:06:43;102149.63;;;-7.69;71.69
84936;BME280;75210;52.210;20.902;2024-01-10T01:07:43;102156.50;;;-7.68;71.68
84936;BME280;75210;52.210;20.902;2024-01-10T01:08:43;102150.59;;;-7.67;70.72
84936;BME280;75210;52.210;20.902;2024-01-10T01:09:44;102152.28;;;-7.68;71.26
84936;BME280;75210;52.210;20.902;2024-01-10T01:10:44;102153.97;;;-7.68;71.50
84936;BME280;75210;52.210;20.902;2024-01-10T01:11:45;102150.63;;;-7.66;71.49
84936;BME280;75210;52.210;20.902;2024-01-10T01:12:45;102148.16;;;-7.64;71.49
84936;BME280;75210;52.210;20.902;2024-01-10T01:13:45;102105.00;;;-7.90;71.66
84936;BME280;75210;52.210;20.902;2024-01-10T01:14:46;102146.41;;;-7.65;71.47
84936;BME280;75210;52.210;20.902;2024-01-10T01:15:46;102148.25;;;-7.63;71.16
84936;BME280;75210;52.210;20.902;2024-01-10T01:16:46;102120.78;;;-7.83;71.60
84936;BME280;75210;52.210;20.902;2024-01-10T01:17:48;102154.31;;;-7.61;71.31
84936;BME280;75210;52.210;20.902;2024-01-10T01:18:49;102146.56;;;-7.62;71.15
84936;BME280;75210;52.210;20.902;2024-01-10T01:19:49;102148.25;;;-7.63;71.49
84936;BME280;75210;52.210;20.902;2024-01-10T01:20:49;102049.28;;;-8.12;71.27
84936;BME280;75210;52.210;20.902;2024-01-10T01:21:50;102143.38;;;-7.58;71.41
84936;BME280;75210;52.210;20.902;2024-01-10T01:22:50;102151.84;;;-7.59;70.51
84936;BME280;75210;52.210;20.902;2024-01-10T01:23:50;102143.19;;;-7.61;70.60
84936;BME280;75210;52.210;20.902;2024-01-10T01:24:52;102143.84;;;-7.65;71.59
84936;BME280;75210;52.210;20.902;2024-01-10T01:25:52;102142.75;;;-7.70;70.94
84936;BME280;75210;52.210;20.902;2024-01-10T01:26:52;102139.47;;;-7.68;70.91
84936;BME280;75210;52.210;20.902;2024-01-10T01:27:53;102000.63;;;-8.48;71.04
84936;BME280;75210;52.210;20.902;2024-01-10T01:28:53;102131.91;;;-7.65;71.36
84936;BME280;75210;52.210;20.902;2024-01-10T01:29:53;102133.75;;;-7.62;71.31
84936;BME280;75210;52.210;20.902;2024-01-10T01:30:54;102127.03;;;-7.60;71.65
84936;BME280;75210;52.210;20.902;2024-01-10T01:31:55;102127.13;;;-7.58;71.44
84936;BME280;75210;52.210;20.902;2024-01-10T01:32:56;102107.63;;;-7.73;71.66
84936;BME280;75210;52.210;20.902;2024-01-10T01:33:57;102132.31;;;-7.57;71.16
84936;BME280;75210;52.210;20.902;2024-01-10T01:34:57;102126.47;;;-7.54;71.37
84936;BME280;75210;52.210;20.902;2024-01-10T01:35:58;102122.06;;;-7.57;71.30
84936;BME280;75210;52.210;20.902;2024-01-10T01:36:58;102108.66;;;-7.69;70.91
84936;BME280;75210;52.210;20.902;2024-01-10T01:37:59;102097.13;;;-7.77;71.89
84936;BME280;75210;52.210;20.902;2024-01-10T01:38:59;102123.50;;;-7.62;71.12
84936;BME280;75210;52.210;20.902;2024-01-10T01:40:00;102117.59;;;-7.61;71.43
84936;BME280;75210;52.210;20.902;2024-01-10T01:41:00;102120.94;;;-7.62;71.64
84936;BME280;75210;52.210;20.902;2024-01-10T01:42:00;102116.47;;;-7.66;71.15
84936;BME280;75210;52.210;20.902;2024-01-10T01:43:02;102111.44;;;-7.65;71.67
84936;BME280;75210;52.210;20.902;2024-01-10T01:44:02;102114.66;;;-7.69;71.88
84936;BME280;75210;52.210;20.902;2024-01-10T01:45:03;102113.91;;;-7.66;71.30
84936;BME280;75210;52.210;20.902;2024-01-10T01:46:04;102084.84;;;-7.84;71.79
84936;BME280;75210;52.210;20.902;2024-01-10T01:47:04;102110.72;;;-7.62;71.65
84936;BME280;75210;52.210;20.902;2024-01-10T01:48:07;102110.72;;;-7.62;71.71
84936;BME280;75210;52.210;20.902;2024-01-10T01:49:07;102109.09;;;-7.60;71.85
84936;BME280;75210;52.210;20.902;2024-01-10T01:50:08;102112.47;;;-7.61;71.56
84936;BME280;75210;52.210;20.902;2024-01-10T01:51:09;102110.78;;;-7.61;71.37
84936;BME280;75210;52.210;20.902;2024-01-10T01:52:11;101978.94;;;-8.38;70.87
84936;BME280;75210;52.210;20.902;2024-01-10T01:53:12;102101.44;;;-7.60;70.72
84936;BME280;75210;52.210;20.902;2024-01-10T01:54:13;102088.00;;;-7.72;70.54
84936;BME280;75210;52.210;20.902;2024-01-10T01:55:14;102103.66;;;-7.66;70.76
84936;BME280;75210;52.210;20.902;2024-01-10T01:56:14;102103.63;;;-7.68;71.62
84936;BME280;75210;52.210;20.902;2024-01-10T01:57:15;102108.78;;;-7.66;71.50
84936;BME280;75210;52.210;20.902;2024-01-10T01:58:16;102105.13;;;-7.71;71.10
84936;BME280;75210;52.210;20.902;2024-01-10T01:59:16;102109.47;;;-7.70;71.69
84936;BME280;75210;52.210;20.902;2024-01-10T02:00:17;102100.97;;;-7.69;71.20
84936;BME280;75210;52.210;20.902;2024-01-10T02:01:18;102107.88;;;-7.68;70.94
84936;BME280;75210;52.210;20.902;2024-01-10T02:02:20;102108.00;;;-7.65;70.69
84936;BME280;75210;52.210;20.902;2024-01-10T02:03:23;102103.03;;;-7.62;70.90
84936;BME280;75210;52.210;20.902;2024-01-10T02:04:23;102108.75;;;-7.68;70.64
84936;BME280;75210;52.210;20.902;2024-01-10T02:05:24;102108.59;;;-7.71;71.04
84936;BME280;75210;52.210;20.902;2024-01-10T02:06:25;102074.44;;;-7.87;71.15
84936;BME280;75210;52.210;20.902;2024-01-10T02:07:25;102017.75;;;-8.29;70.80
84936;BME280;75210;52.210;20.902;2024-01-10T02:08:27;102108.34;;;-7.75;71.00
84936;BME280;75210;52.210;20.902;2024-01-10T02:09:27;102109.13;;;-7.76;70.77
84936;BME280;75210;52.210;20.902;2024-01-10T02:10:28;102111.84;;;-7.73;71.13
84936;BME280;75210;52.210;20.902;2024-01-10T02:11:28;102116.44;;;-7.68;71.21
84936;BME280;75210;52.210;20.902;2024-01-10T02:12:29;102105.50;;;-7.64;71.04
84936;BME280;75210;52.210;20.902;2024-01-10T02:13:30;102102.06;;;-7.64;70.51
84936;BME280;75210;52.210;20.902;2024-01-10T02:14:31;102105.66;;;-7.61;70.89
84936;BME280;75210;52.210;20.902;2024-01-10T02:15:31;102106.47;;;-7.62;70.66
84936;BME280;75210;52.210;20.902;2024-01-10T02:16:32;102087.41;;;-7.84;70.83
84936;BME280;75210;52.210;20.902;2024-01-10T02:17:32;102111.56;;;-7.79;71.21
84936;BME280;75210;52.210;20.902;2024-01-10T02:18:35;102114.25;;;-7.76;71.18
84936;BME280;75210;52.210;20.902;2024-01-10T02:19:35;102113.47;;;-7.75;70.82
84936;BME280;75210;52.210;20.902;2024-01-10T02:20:35;102115.13;;;-7.76;71.09
84936;BME280;75210;52.210;20.902;2024-01-10T02:21:36;102116.91;;;-7.75;70.98
84936;BME280;75210;52.210;20.902;2024-01-10T02:22:36;102112.44;;;-7.79;71.14
84936;BME280;75210;52.210;20.902;2024-01-10T02:23:37;102112.59;;;-7.76;70.92
84936;BME280;75210;52.210;20.902;2024-01-10T02:24:37;102094.44;;;-7.80;71.15
84936;BME280;75210;52.210;20.902;2024-01-10T02:25:40;102105.13;;;-7.71;70.76
84936;BME280;75210;52.210;20.902;2024-01-10T02:26:40;102107.78;;;-7.70;70.86
84936;BME280;75210;52.210;20.902;2024-01-10T02:27:41;102118.91;;;-7.69;70.55
84936;BME280;75210;52.210;20.902;2024-01-10T02:28:41;102118.75;;;-7.72;71.09
84936;BME280;75210;52.210;20.902;2024-01-10T02:29:42;102094.28;;;-7.83;71.28
84936;BME280;75210;52.210;20.902;2024-01-10T02:30:42;102112.50;;;-7.77;70.85
84936;BME280;75210;52.210;20.902;2024-01-10T02:31:43;102117.41;;;-7.82;71.47
84936;BME280;75210;52.210;20.902;2024-01-10T02:32:44;102111.50;;;-7.81;71.24
84936;BME280;75210;52.210;20.902;2024-01-10T02:33:44;102109.00;;;-7.79;71.42
84936;BME280;75210;52.210;20.902;2024-01-10T02:34:45;102106.38;;;-7.81;71.07
84936;BME280;75210;52.210;20.902;2024-01-10T02:35:45;102093.75;;;-7.94;71.86
84936;BME280;75210;52.210;20.902;2024-01-10T02:36:46;102104.69;;;-7.80;71.66
84936;BME280;75210;52.210;20.902;2024-01-10T02:37:46;102102.84;;;-7.83;71.80
84936;BME280;75210;52.210;20.902;2024-01-10T02:38:46;102103.72;;;-7.82;71.37
84936;BME280;75210;52.210;20.902;2024-01-10T02:39:47;102106.44;;;-7.79;71.52
84936;BME280;75210;52.210;20.902;2024-01-10T02:40:49;102107.00;;;-7.85;71.55
84936;BME280;75210;52.210;20.902;2024-01-10T02:41:49;102088.47;;;-7.97;71.78
84936;BME280;75210;52.210;20.902;2024-01-10T02:42:49;102097.81;;;-7.81;71.35
84936;BME280;75210;52.210;20.902;2024-01-10T02:43:50;102092.91;;;-7.77;71.65
84936;BME280;75210;52.210;20.902;2024-01-10T02:44:50;102098.19;;;-7.74;71.10
84936;BME280;75210;52.210;20.902;2024-01-10T02:45:50;102100.03;;;-7.71;71.38
84936;BME280;75210;52.210;20.902;2024-01-10T02:46:51;102094.97;;;-7.70;71.26
84936;BME280;75210;52.210;20.902;2024-01-10T02:47:51;102092.41;;;-7.70;71.22
84936;BME280;75210;52.210;20.902;2024-01-10T02:48:52;102096.66;;;-7.70;71.17
84936;BME280;75210;52.210;20.902;2024-01-10T02:49:52;102090.56;;;-7.72;71.42
84936;BME280;75210;52.210;20.902;2024-01-10T02:50:52;102085.38;;;-7.74;71.40
84936;BME280;75210;52.210;20.902;2024-01-10T02:51:53;102088.81;;;-7.73;71.02
84936;BME280;75210;52.210;20.902;2024-01-10T02:52:53;102091.53;;;-7.70;71.02
84936;BME280;75210;52.210;20.902;2024-01-10T02:53:54;102088.97;;;-7.70;71.35
84936;BME280;75210;52.210;20.902;2024-01-10T02:54:54;102082.97;;;-7.71;71.33
84936;BME280;75210;52.210;20.902;2024-01-10T02:55:56;102083.06;;;-7.69;71.12
84936;BME280;75210;52.210;20.902;2024-01-10T02:56:56;102079.69;;;-7.68;71.55
84936;BME280;75210;52.210;20.902;2024-01-10T02:57:56;102081.38;;;-7.69;71.68
84936;BME280;75210;52.210;20.902;2024-01-10T02:58:57;102069.28;;;-7.71;71.74
84936;BME280;75210;52.210;20.902;2024-01-10T02:59:57;102073.69;;;-7.69;71.80
84936;BME280;75210;52.210;20.902;2024-01-10T03:00:57;102069.38;;;-7.70;71.31
84936;BME280;75210;52.210;20.902;2024-01-10T03:01:58;102072.81;;;-7.69;71.78
84936;BME280;75210;52.210;20.902;2024-01-10T03:02:58;102068.50;;;-7.70;71.95
84936;BME280;75210;52.210;20.902;2024-01-10T03:03:59;102007.09;;;-8.04;71.27
84936;BME280;75210;52.210;20.902;2024-01-10T03:04:59;102068.41;;;-7.72;71.28
84936;BME280;75210;52.210;20.902;2024-01-10T03:05:59;102064.16;;;-7.71;71.27
84936;BME280;75210;52.210;20.902;2024-01-10T03:07:00;102070.25;;;-7.69;71.99
84936;BME280;75210;52.210;20.902;2024-01-10T03:08:00;102069.28;;;-7.71;71.49
84936;BME280;75210;52.210;20.902;2024-01-10T03:09:01;102039.41;;;-7.88;71.35
84936;BME280;75210;52.210;20.902;2024-01-10T03:10:01;102061.69;;;-7.70;71.30
84936;BME280;75210;52.210;20.902;2024-01-10T03:11:03;102060.81;;;-7.70;71.47
84936;BME280;75210;52.210;20.902;2024-01-10T03:12:04;102049.88;;;-7.66;71.36
84936;BME280;75210;52.210;20.902;2024-01-10T03:13:04;102054.09;;;-7.68;71.63
84936;BME280;75210;52.210;20.902;2024-01-10T03:14:08;102051.22;;;-7.74;71.70
84936;BME280;75210;52.210;20.902;2024-01-10T03:15:09;102052.81;;;-7.76;71.76
84936;BME280;75210;52.210;20.902;2024-01-10T03:16:09;102047.47;;;-7.81;71.74
84936;BME280;75210;52.210;20.902;2024-01-10T03:17:10;102051.06;;;-7.77;72.12
84936;BME280;75210;52.210;20.902;2024-01-10T03:18:10;102052.97;;;-7.73;71.69
84936;BME280;75210;52.210;20.902;2024-01-10T03:19:10;102052.97;;;-7.73;71.47
84936;BME280;75210;52.210;20.902;2024-01-10T03:20:11;102049.38;;;-7.77;71.77
84936;BME280;75210;52.210;20.902;2024-01-10T03:21:12;102059.59;;;-7.77;72.10
84936;BME280;75210;52.210;20.902;2024-01-10T03:22:12;102057.81;;;-7.79;71.60
84936;BME280;75210;52.210;20.902;2024-01-10T03:23:12;102058.59;;;-7.80;71.31
84936;BME280;75210;52.210;20.902;2024-01-10T03:24:13;102055.28;;;-7.78;71.69
84936;BME280;75210;52.210;20.902;2024-01-10T03:25:13;102053.50;;;-7.80;71.93
84936;BME280;75210;52.210;20.902;2024-01-10T03:26:15;102054.50;;;-7.77;71.88
84936;BME280;75210;52.210;20.902;2024-01-10T03:27:15;102047.31;;;-7.84;71.99
84936;BME280;75210;52.210;20.902;2024-01-10T03:28:16;102049.81;;;-7.85;72.03
84936;BME280;75210;52.210;20.902;2024-01-10T03:29:16;102044.41;;;-7.91;72.31
84936;BME280;75210;52.210;20.902;2024-01-10T03:30:17;102050.16;;;-7.95;72.45
84936;BME280;75210;52.210;20.902;2024-01-10T03:31:18;102050.94;;;-7.97;72.78
84936;BME280;75210;52.210;20.902;2024-01-10T03:32:18;102008.28;;;-8.14;72.02
84936;BME280;75210;52.210;20.902;2024-01-10T03:33:19;102044.53;;;-7.88;72.45
84936;BME280;75210;52.210;20.902;2024-01-10T03:34:19;102047.88;;;-7.89;72.07
84936;BME280;75210;52.210;20.902;2024-01-10T03:35:20;102048.63;;;-7.92;71.79
84936;BME280;75210;52.210;20.902;2024-01-10T03:36:20;102049.53;;;-7.91;72.10
84936;BME280;75210;52.210;20.902;2024-01-10T03:37:20;102050.31;;;-7.92;71.88
84936;BME280;75210;52.210;20.902;2024-01-10T03:38:21;102047.88;;;-7.89;71.52
84936;BME280;75210;52.210;20.902;2024-01-10T03:39:21;102041.75;;;-7.93;71.94
84936;BME280;75210;52.210;20.902;2024-01-10T03:40:21;102044.44;;;-7.90;71.55
84936;BME280;75210;52.210;20.902;2024-01-10T03:41:23;101993.69;;;-8.16;71.39
84936;BME280;75210;52.210;20.902;2024-01-10T03:42:24;102054.94;;;-7.85;71.89
84936;BME280;75210;52.210;20.902;2024-01-10T03:43:24;102045.47;;;-7.86;71.76
84936;BME280;75210;52.210;20.902;2024-01-10T03:44:26;101944.44;;;-8.46;71.39
84936;BME280;75210;52.210;20.902;2024-01-10T03:45:26;102041.31;;;-7.84;71.00
84936;BME280;75210;52.210;20.902;2024-01-10T03:46:27;102039.66;;;-7.84;71.14
84936;BME280;75210;52.210;20.902;2024-01-10T03:47:27;102037.97;;;-7.83;71.19
84936;BME280;75210;52.210;20.902;2024-01-10T03:48:28;102043.88;;;-7.84;71.42
84936;BME280;75210;52.210;20.902;2024-01-10T03:49:28;102041.16;;;-7.87;70.93
84936;BME280;75210;52.210;20.902;2024-01-10T03:50:29;102045.31;;;-7.89;70.80
84936;BME280;75210;52.210;20.902;2024-01-10T03:51:29;102044.41;;;-7.91;71.11
84936;BME280;75210;52.210;20.902;2024-01-10T03:52:29;102042.47;;;-7.95;71.19
84936;BME280;75210;52.210;20.902;2024-01-10T03:53:30;102050.78;;;-8.00;71.50
84936;BME280;75210;52.210;20.902;2024-01-10T03:54:30;102021.56;;;-8.21;71.40
84936;BME280;75210;52.210;20.902;2024-01-10T03:55:31;102042.75;;;-8.07;71.37
84936;BME280;75210;52.210;20.902;2024-01-10T03:56:32;102047.88;;;-8.07;71.70
84936;BME280;75210;52.210;20.902;2024-01-10T03:57:33;102039.50;;;-8.03;71.21
84936;BME280;75210;52.210;20.902;2024-01-10T03:58:33;102040.41;;;-8.03;71.88
84936;BME280;75210;52.210;20.902;2024-01-10T03:59:33;102036.25;;;-8.01;71.24
84936;BME280;75210;52.210;20.902;2024-01-10T04:00:34;102032.97;;;-7.98;71.07
84936;BME280;75210;52.210;20.902;2024-01-10T04:01:34;102025.00;;;-8.04;71.21
84936;BME280;75210;52.210;20.902;2024-01-10T04:02:36;102035.28;;;-8.03;71.00
84936;BME280;75210;52.210;20.902;2024-01-10T04:03:37;102028.28;;;-8.07;70.89
84936;BME280;75210;52.210;20.902;2024-01-10T04:04:37;102036.59;;;-8.11;71.60
84936;BME280;75210;52.210;20.902;2024-01-10T04:05:37;102027.31;;;-8.09;71.46
84936;BME280;75210;52.210;20.902;2024-01-10T04:06:38;102033.69;;;-8.01;70.89
84936;BME280;75210;52.210;20.902;2024-01-10T04:07:39;102020.59;;;-8.07;71.15
84936;BME280;75210;52.210;20.902;2024-01-10T04:08:40;101951.69;;;-8.38;71.24
84936;BME280;75210;52.210;20.902;2024-01-10T04:09:40;102021.19;;;-7.94;71.23
84936;BME280;75210;52.210;20.902;2024-01-10T04:10:40;102020.53;;;-7.90;70.96
84936;BME280;75210;52.210;20.902;2024-01-10T04:11:42;101993.16;;;-8.09;70.66
84936;BME280;75210;52.210;20.902;2024-01-10T04:12:43;102010.81;;;-7.98;71.13
84936;BME280;75210;52.210;20.902;2024-01-10T04:13:44;102012.66;;;-7.95;70.75
84936;BME280;75210;52.210;20.902;2024-01-10T04:14:44;102013.53;;;-7.94;70.42
84936;BME280;75210;52.210;20.902;2024-01-10T04:15:44;102007.44;;;-7.97;70.51
84936;BME280;75210;52.210;20.902;2024-01-10T04:16:45;102014.31;;;-7.95;70.83
84936;BME280;75210;52.210;20.902;2024-01-10T04:17:45;102006.56;;;-7.97;70.87
84936;BME280;75210;52.210;20.902;2024-01-10T04:18:46;102004.88;;;-7.97;70.59
84936;BME280;75210;52.210;20.902;2024-01-10T04:19:46;102007.44;;;-7.97;70.54
84936;BME280;75210;52.210;20.902;2024-01-10T04:20:47;102008.41;;;-7.94;70.92
84936;BME280;75210;52.210;20.902;2024-01-10T04:21:48;102012.56;;;-7.97;70.81
84936;BME280;75210;52.210;20.902;2024-01-10T04:22:48;101973.78;;;-8.22;70.70
84936;BME280;75210;52.210;20.902;2024-01-10T04:23:48;102014.81;;;-8.03;70.77
84936;BME280;75210;52.210;20.902;2024-01-10T04:24:49;102009.84;;;-8.00;70.85
84936;BME280;75210;52.210;20.902;2024-01-10T04:25:49;102007.28;;;-8.00;70.66
84936;BME280;75210;52.210;20.902;2024-01-10T04:26:51;102011.53;;;-8.00;70.15
84936;BME280;75210;52.210;20.902;2024-01-10T04:27:51;102007.38;;;-7.98;70.59
84936;BME280;75210;52.210;20.902;2024-01-10T04:28:52;102000.66;;;-7.96;70.66
84936;BME280;75210;52.210;20.902;2024-01-10T04:29:52;101840.81;;;-8.90;70.44
84936;BME280;75210;52.210;20.902;2024-01-10T04:30:53;101998.25;;;-7.93;70.71
84936;BME280;75210;52.210;20.902;2024-01-10T04:31:53;102000.88;;;-7.91;70.67
84936;BME280;75210;52.210;20.902;2024-01-10T04:32:55;101999.13;;;-7.92;70.14
84936;BME280;75210;52.210;20.902;2024-01-10T04:33:55;101994.94;;;-7.90;69.74
84936;BME280;75210;52.210;20.902;2024-01-10T04:34:55;101896.50;;;-8.50;70.32
84936;BME280;75210;52.210;20.902;2024-01-10T04:35:56;101953.47;;;-8.19;70.43
84936;BME280;75210;52.210;20.902;2024-01-10T04:36:56;101996.31;;;-7.97;70.22
84936;BME280;75210;52.210;20.902;2024-01-10T04:37:56;102003.84;;;-8.00;70.70
84936;BME280;75210;52.210;20.902;2024-01-10T04:38:57;102001.44;;;-7.97;70.39
84936;BME280;75210;52.210;20.902;2024-01-10T04:39:57;101993.69;;;-7.99;70.64
84936;BME280;75210;52.210;20.902;2024-01-10T04:40:58;101993.03;;;-7.94;70.23
84936;BME280;75210;52.210;20.902;2024-01-10T04:41:59;101994.66;;;-7.97;70.63
84936;BME280;75210;52.210;20.902;2024-01-10T04:43:00;101999.13;;;-7.92;70.49
84936;BME280;75210;52.210;20.902;2024-01-10T04:44:00;102006.13;;;-7.88;70.25
84936;BME280;75210;52.210;20.902;2024-01-10T04:45:01;102002.56;;;-7.92;69.83
84936;BME280;75210;52.210;20.902;2024-01-10T04:46:01;101994.06;;;-7.91;70.04
84936;BME280;75210;52.210;20.902;2024-01-10T04:47:02;102006.94;;;-7.89;70.09
84936;BME280;75210;52.210;20.902;2024-01-10T04:48:02;102006.94;;;-7.89;69.47
84936;BME280;75210;52.210;20.902;2024-01-10T04:49:03;102008.59;;;-7.90;69.87
84936;BME280;75210;52.210;20.902;2024-01-10T04:50:04;102006.00;;;-7.91;69.67
84936;BME280;75210;52.210;20.902;2024-01-10T04:51:04;102008.56;;;-7.91;69.99
84936;BME280;75210;52.210;20.902;2024-01-10T04:52:05;102007.69;;;-7.92;69.66
84936;BME280;75210;52.210;20.902;2024-01-10T04:53:06;101988.22;;;-8.06;70.15
84936;BME280;75210;52.210;20.902;2024-01-10T04:54:06;102004.28;;;-7.91;69.72
84936;BME280;75210;52.210;20.902;2024-01-10T04:55:07;101947.31;;;-8.22;69.54
84936;BME280;75210;52.210;20.902;2024-01-10T04:56:07;102012.38;;;-7.83;69.65
84936;BME280;75210;52.210;20.902;2024-01-10T04:57:09;101968.88;;;-8.17;69.58
84936;BME280;75210;52.210;20.902;2024-01-10T04:58:09;102012.72;;;-7.93;69.72
84936;BME280;75210;52.210;20.902;2024-01-10T04:59:10;102007.22;;;-8.01;69.84
84936;BME280;75210;52.210;20.902;2024-01-10T05:00:11;102008.69;;;-8.06;69.48
84936;BME280;75210;52.210;20.902;2024-01-10T05:01:11;102009.56;;;-8.06;69.56
84936;BME280;75210;52.210;20.902;2024-01-10T05:02:12;102006.84;;;-8.09;69.62
84936;BME280;75210;52.210;20.902;2024-01-10T05:03:12;102014.81;;;-8.03;69.52
84936;BME280;75210;52.210;20.902;2024-01-10T05:04:12;102004.53;;;-8.04;69.46
84936;BME280;75210;52.210;20.902;2024-01-10T05:05:13;102011.44;;;-8.02;69.87
84936;BME280;75210;52.210;20.902;2024-01-10T05:06:13;102014.09;;;-8.00;69.40
84936;BME280;75210;52.210;20.902;2024-01-10T05:07:14;101959.72;;;-8.30;69.03
84936;BME280;75210;52.210;20.902;2024-01-10T05:08:14;101886.66;;;-8.77;69.35
84936;BME280;75210;52.210;20.902;2024-01-10T05:09:14;102021.69;;;-8.02;69.31
84936;BME280;75210;52.210;20.902;2024-01-10T05:10:15;102014.50;;;-8.09;69.70
84936;BME280;75210;52.210;20.902;2024-01-10T05:11:16;102021.06;;;-8.14;69.43
84936;BME280;75210;52.210;20.902;2024-01-10T05:12:18;102025.22;;;-8.16;69.64